Time;durP1;ratioP1;P1;durP2;ratioP2;P2;SDS_P1;SDS_P2;PMS_P1;PMS_P2;Temp;Humidity;BMP_temperature;BMP_pressure;BME280_temperature;BME280_humidity;BME280_pressure;Samples;Min_cycle;Max_cycle;Signal;HPM_P1;HPM_P2
2021/08/28 00:00:19;;;;;;;22.85;16.25;;;;;;;;;;2079061;28;20183;-52
2021/08/28 00:01:19;;;;;;;19.05;15.60;;;;;;;;;;2076807;28;20157;-52
2021/08/28 00:02:19;;;;;;;19.60;15.85;;;;;;;;;;2076499;28;20184;-55
2021/08/28 00:03:23;;;;;;;20.90;17.10;;;;;;;;;;2075950;28;20192;-56
2021/08/28 00:04:23;;;;;;;17.30;14.93;;;;;;;;;;2074190;28;20169;-51
2021/08/28 00:05:23;;;;;;;21.42;16.02;;;;;;;;;;2077440;28;20234;-54
2021/08/28 00:06:23;;;;;;;22.85;15.68;;;;;;;;;;2073721;28;20160;-54
2021/08/28 00:07:24;;;;;;;18.70;16.52;;;;;;;;;;2076062;28;20650;-55
2021/08/28 00:08:24;;;;;;;19.73;15.90;;;;;;;;;;2076757;28;20177;-55
2021/08/28 00:09:24;;;;;;;20.52;16.65;;;;;;;;;;2077654;28;20168;-53
2021/08/28 00:10:25;;;;;;;18.15;14.68;;;;;;;;;;2068348;28;20587;-52
2021/08/28 00:11:25;;;;;;;24.17;15.38;;;;;;;;;;2061005;28;20531;-56
2021/08/28 00:12:26;;;;;;;20.02;16.38;;;;;;;;;;2069180;28;20177;-52
2021/08/28 00:13:26;;;;;;;18.35;15.38;;;;;;;;;;2076670;28;20638;-59
2021/08/28 00:14:26;;;;;;;17.02;14.35;;;;;;;;;;2073173;28;20271;-57
2021/08/28 00:15:26;;;;;;;18.95;14.38;;;;;;;;;;2073105;28;20237;-53
2021/08/28 00:16:27;;;;;;;22.15;15.38;;;;;;;;;;2077412;28;20188;-56
2021/08/28 00:17:33;;;;;;;17.77;15.88;;;;;;;;;;2076579;28;20173;-55
2021/08/28 00:18:33;;;;;;;18.08;15.48;;;;;;;;;;2076926;28;20702;-53
2021/08/28 00:19:33;;;;;;;19.77;14.07;;;;;;;;;;2074905;28;20197;-56
2021/08/28 00:20:34;;;;;;;19.08;14.45;;;;;;;;;;2076427;28;20185;-53
2021/08/28 00:21:34;;;;;;;17.75;14.98;;;;;;;;;;2068695;28;20186;-56
2021/08/28 00:22:35;;;;;;;17.65;15.30;;;;;;;;;;2068517;28;20713;-60
2021/08/28 00:23:35;;;;;;;17.70;15.18;;;;;;;;;;2075423;28;20308;-51
2021/08/28 00:24:35;;;;;;;20.90;16.05;;;;;;;;;;2074574;28;20189;-54
2021/08/28 00:25:36;;;;;;;19.25;15.95;;;;;;;;;;2073048;28;20590;-52
2021/08/28 00:26:36;;;;;;;20.73;16.85;;;;;;;;;;2066815;28;20239;-52
2021/08/28 00:27:36;;;;;;;22.80;16.25;;;;;;;;;;2058502;28;20676;-52
2021/08/28 00:28:36;;;;;;;23.95;18.13;;;;;;;;;;2068525;28;20189;-51
2021/08/28 00:29:37;;;;;;;23.00;17.77;;;;;;;;;;2061401;28;20182;-55
2021/08/28 00:30:37;;;;;;;25.88;19.15;;;;;;;;;;2054859;28;20266;-56
2021/08/28 00:31:37;;;;;;;20.05;17.30;;;;;;;;;;2070137;28;20245;-55
2021/08/28 00:32:38;;;;;;;19.50;17.17;;;;;;;;;;2077741;28;20252;-55
2021/08/28 00:33:38;;;;;;;20.58;17.00;;;;;;;;;;2067038;28;20281;-53
2021/08/28 00:34:38;;;;;;;18.58;16.08;;;;;;;;;;2065775;28;20649;-54
2021/08/28 00:35:39;;;;;;;21.83;16.33;;;;;;;;;;2076881;28;20203;-52
2021/08/28 00:36:39;;;;;;;18.30;16.05;;;;;;;;;;2068105;28;20177;-56
2021/08/28 00:37:40;;;;;;;18.00;15.98;;;;;;;;;;2061094;28;20220;-53
2021/08/28 00:38:40;;;;;;;20.90;16.67;;;;;;;;;;2065905;28;20192;-53
2021/08/28 00:39:40;;;;;;;20.63;16.38;;;;;;;;;;2077818;28;20638;-52
2021/08/28 00:40:41;;;;;;;19.65;16.42;;;;;;;;;;2068006;28;20629;-51
2021/08/28 00:41:41;;;;;;;20.38;15.82;;;;;;;;;;2068576;28;20200;-52
2021/08/28 00:42:51;;;;;;;18.17;16.38;;;;;;;;;;2075256;28;20204;-51
2021/08/28 00:43:51;;;;;;;21.60;15.38;;;;;;;;;;2078012;28;20668;-51
2021/08/28 00:44:52;;;;;;;18.85;15.23;;;;;;;;;;2065793;28;20185;-54
2021/08/28 00:45:52;;;;;;;20.23;16.48;;;;;;;;;;2058868;28;20565;-54
2021/08/28 00:46:53;;;;;;;19.70;16.38;;;;;;;;;;2066896;28;20545;-53
2021/08/28 00:47:56;;;;;;;23.38;16.25;;;;;;;;;;2067056;28;20200;-61
2021/08/28 00:48:58;;;;;;;18.58;15.75;;;;;;;;;;2060233;28;20171;-55
2021/08/28 00:49:58;;;;;;;18.17;15.57;;;;;;;;;;2058899;28;20193;-57
2021/08/28 00:50:59;;;;;;;21.88;15.65;;;;;;;;;;2065800;28;20214;-55
2021/08/28 00:52:02;;;;;;;20.48;16.08;;;;;;;;;;2062070;28;20193;-57
2021/08/28 00:53:03;;;;;;;17.15;15.27;;;;;;;;;;2054638;28;20307;-52
2021/08/28 00:54:04;;;;;;;18.33;14.75;;;;;;;;;;2060432;28;20178;-54
2021/08/28 00:55:04;;;;;;;19.65;16.48;;;;;;;;;;2065362;28;20174;-56
2021/08/28 00:56:04;;;;;;;23.25;17.17;;;;;;;;;;2070228;28;20540;-57
2021/08/28 00:57:07;;;;;;;23.15;16.02;;;;;;;;;;2070025;28;20177;-52
2021/08/28 00:58:08;;;;;;;17.13;15.20;;;;;;;;;;2060033;28;20205;-55
2021/08/28 00:59:08;;;;;;;18.40;14.75;;;;;;;;;;2064905;28;20257;-53
2021/08/28 01:00:09;;;;;;;16.58;14.88;;;;;;;;;;2069615;28;20177;-54
2021/08/28 01:01:11;;;;;;;24.92;16.65;;;;;;;;;;2067662;28;20176;-54
2021/08/28 01:02:12;;;;;;;22.52;17.98;;;;;;;;;;2078185;28;20204;-53
2021/08/28 01:03:13;;;;;;;20.38;15.77;;;;;;;;;;2078733;28;20195;-53
2021/08/28 01:04:17;;;;;;;17.80;15.05;;;;;;;;;;2075188;28;20235;-57
2021/08/28 01:05:25;;;;;;;16.65;15.00;;;;;;;;;;2067350;28;20648;-56
2021/08/28 01:06:38;;;;;;;18.73;15.27;;;;;;;;;;2062046;28;20217;-55
2021/08/28 01:07:59;;;;;;;19.90;14.25;;;;;;;;;;2064568;28;20169;-54
2021/08/28 01:09:21;;;;;;;16.98;15.27;;;;;;;;;;2063684;28;20239;-56
2021/08/28 01:10:41;;;;;;;17.35;15.55;;;;;;;;;;2058921;28;20206;-53
2021/08/28 01:12:02;;;;;;;18.55;15.73;;;;;;;;;;2063917;28;20219;-57
2021/08/28 01:13:07;;;;;;;18.50;15.20;;;;;;;;;;2059990;28;20201;-57
2021/08/28 01:14:14;;;;;;;21.02;17.27;;;;;;;;;;2070499;28;20228;-57
2021/08/28 01:15:20;;;;;;;18.27;15.95;;;;;;;;;;2059360;28;20166;-57
2021/08/28 01:16:21;;;;;;;19.25;16.70;;;;;;;;;;2062637;28;20177;-58
2021/08/28 01:17:22;;;;;;;22.98;15.80;;;;;;;;;;2064070;28;20201;-56
2021/08/28 01:18:23;;;;;;;20.25;16.73;;;;;;;;;;2067389;28;20170;-55
2021/08/28 01:19:35;;;;;;;20.17;17.38;;;;;;;;;;2069008;28;20197;-54
2021/08/28 01:20:54;;;;;;;18.75;16.75;;;;;;;;;;2058923;28;20166;-53
2021/08/28 01:22:14;;;;;;;18.65;15.27;;;;;;;;;;2070943;28;20165;-56
2021/08/28 01:23:34;;;;;;;20.42;16.48;;;;;;;;;;2077336;28;20236;-53
2021/08/28 01:24:56;;;;;;;17.88;15.55;;;;;;;;;;2067059;28;20220;-53
2021/08/28 01:26:07;;;;;;;20.42;15.82;;;;;;;;;;2059884;28;20178;-52
2021/08/28 01:27:28;;;;;;;17.92;15.80;;;;;;;;;;2066465;28;20217;-56
2021/08/28 01:28:31;;;;;;;24.58;16.02;;;;;;;;;;2067458;28;20185;-53
2021/08/28 01:29:33;;;;;;;21.42;16.02;;;;;;;;;;2067028;28;20169;-52
2021/08/28 01:30:34;;;;;;;19.60;15.68;;;;;;;;;;2066208;28;20646;-57
2021/08/28 01:31:34;;;;;;;19.00;15.93;;;;;;;;;;2059551;28;20171;-54
2021/08/28 01:32:36;;;;;;;21.15;16.33;;;;;;;;;;2058487;28;20265;-58
2021/08/28 01:33:41;;;;;;;24.27;16.48;;;;;;;;;;2058779;28;20557;-55
2021/08/28 01:34:43;;;;;;;22.23;16.85;;;;;;;;;;2060669;28;20178;-56
2021/08/28 01:35:46;;;;;;;26.63;17.20;;;;;;;;;;2057796;28;20186;-54
2021/08/28 01:36:51;;;;;;;22.23;17.63;;;;;;;;;;2060448;28;20178;-57
2021/08/28 01:38:11;;;;;;;21.38;16.90;;;;;;;;;;2058560;28;20185;-53
2021/08/28 01:39:30;;;;;;;21.38;17.10;;;;;;;;;;2059682;28;20194;-52
2021/08/28 01:40:31;;;;;;;23.98;18.90;;;;;;;;;;2068213;28;20304;-55
2021/08/28 01:41:34;;;;;;;27.02;18.35;;;;;;;;;;2063670;28;20228;-56
2021/08/28 01:42:36;;;;;;;21.48;18.63;;;;;;;;;;2058067;28;20177;-54
2021/08/28 01:43:38;;;;;;;24.80;19.70;;;;;;;;;;2056440;28;20179;-54
2021/08/28 01:44:43;;;;;;;29.30;18.35;;;;;;;;;;2068253;28;20176;-57
2021/08/28 01:45:43;;;;;;;25.48;18.25;;;;;;;;;;2060838;28;20174;-55
2021/08/28 01:46:45;;;;;;;27.25;17.80;;;;;;;;;;2057621;28;20178;-54
2021/08/28 01:47:46;;;;;;;23.70;17.65;;;;;;;;;;2057927;28;20527;-52
2021/08/28 01:48:48;;;;;;;30.17;17.70;;;;;;;;;;2051184;28;20178;-56
2021/08/28 01:49:50;;;;;;;25.02;17.90;;;;;;;;;;2052764;28;20389;-56
2021/08/28 01:50:52;;;;;;;22.10;18.27;;;;;;;;;;2049699;28;20222;-52
2021/08/28 01:51:57;;;;;;;21.48;16.38;;;;;;;;;;2053911;28;20170;-53
2021/08/28 01:53:03;;;;;;;23.52;18.08;;;;;;;;;;2059251;28;20228;-54
2021/08/28 01:54:04;;;;;;;23.98;17.92;;;;;;;;;;2058808;28;20192;-55
2021/08/28 01:55:05;;;;;;;26.60;17.92;;;;;;;;;;2066859;28;20176;-56
2021/08/28 01:56:14;;;;;;;26.60;17.95;;;;;;;;;;2064029;28;20189;-58
2021/08/28 01:57:15;;;;;;;24.27;17.75;;;;;;;;;;2067540;28;20157;-55
2021/08/28 01:58:28;;;;;;;20.48;16.67;;;;;;;;;;2066797;28;20177;-54
2021/08/28 01:59:44;;;;;;;29.13;19.25;;;;;;;;;;2059492;28;20162;-55
2021/08/28 02:00:57;;;;;;;23.40;17.80;;;;;;;;;;2062597;28;20221;-56
2021/08/28 02:02:24;;;;;;;32.85;19.58;;;;;;;;;;2067554;28;20180;-58
2021/08/28 02:03:29;;;;;;;27.52;19.25;;;;;;;;;;2076176;28;20184;-56
2021/08/28 02:04:29;;;;;;;24.23;18.75;;;;;;;;;;2064485;28;20317;-55
2021/08/28 02:05:32;;;;;;;30.00;19.02;;;;;;;;;;2060199;28;20178;-57
2021/08/28 02:06:52;;;;;;;28.20;18.48;;;;;;;;;;2056257;28;20190;-55
2021/08/28 02:08:00;;;;;;;24.95;17.35;;;;;;;;;;2058344;28;20722;-59
2021/08/28 02:09:06;;;;;;;25.20;18.52;;;;;;;;;;2058897;28;20180;-56
2021/08/28 02:10:11;;;;;;;30.50;19.45;;;;;;;;;;2059968;28;20201;-56
2021/08/28 02:11:14;;;;;;;32.75;18.73;;;;;;;;;;2059568;28;20170;-54
2021/08/28 02:12:21;;;;;;;27.63;18.00;;;;;;;;;;2069655;28;20213;-56
2021/08/28 02:13:26;;;;;;;26.08;18.15;;;;;;;;;;2066597;28;20177;-57
2021/08/28 02:14:38;;;;;;;23.20;16.83;;;;;;;;;;2061975;28;20169;-54
2021/08/28 02:15:46;;;;;;;24.63;16.75;;;;;;;;;;2071605;28;20231;-57
2021/08/28 02:16:46;;;;;;;25.98;17.25;;;;;;;;;;2070201;28;20259;-54
2021/08/28 02:17:50;;;;;;;23.50;18.17;;;;;;;;;;2061145;28;20201;-56
2021/08/28 02:18:55;;;;;;;33.03;18.63;;;;;;;;;;2062266;28;20230;-56
2021/08/28 02:20:16;;;;;;;26.80;18.27;;;;;;;;;;2045594;29;20589;-52
2021/08/28 02:21:39;;;;;;;22.92;17.13;;;;;;;;;;2067956;28;21560;-54
2021/08/28 02:22:47;;;;;;;29.10;16.85;;;;;;;;;;2058191;28;20560;-52
2021/08/28 02:24:31;;;;;;;23.55;17.13;;;;;;;;;;2072685;28;20219;-53
2021/08/28 02:26:09;;;;;;;19.73;16.85;;;;;;;;;;2065859;28;20189;-53
2021/08/28 02:27:21;;;;;;;22.17;16.08;;;;;;;;;;2048823;28;20186;-53
2021/08/28 02:28:26;;;;;;;21.30;15.15;;;;;;;;;;2051868;28;20659;-54
2021/08/28 02:29:33;;;;;;;23.73;16.55;;;;;;;;;;2044008;29;20555;-54
2021/08/28 02:30:34;;;;;;;21.42;15.75;;;;;;;;;;2036396;29;20239;-53
2021/08/28 02:31:43;;;;;;;21.50;17.27;;;;;;;;;;2035050;29;20220;-52
2021/08/28 02:32:47;;;;;;;23.00;16.35;;;;;;;;;;2051392;28;20201;-56
2021/08/28 02:33:53;;;;;;;20.45;17.52;;;;;;;;;;2062041;28;20269;-55
2021/08/28 02:34:56;;;;;;;21.95;16.45;;;;;;;;;;2065600;28;20169;-52
2021/08/28 02:35:57;;;;;;;25.40;16.85;;;;;;;;;;2074793;28;20173;-54
2021/08/28 02:36:59;;;;;;;22.38;15.70;;;;;;;;;;2069276;28;20178;-52
2021/08/28 02:38:00;;;;;;;18.67;16.48;;;;;;;;;;2058093;28;20180;-51
2021/08/28 02:39:02;;;;;;;20.98;16.65;;;;;;;;;;2061206;28;20197;-56
2021/08/28 02:40:05;;;;;;;19.98;16.02;;;;;;;;;;2072437;28;20201;-53
2021/08/28 02:41:06;;;;;;;18.77;15.27;;;;;;;;;;2063378;28;20538;-56
2021/08/28 02:42:08;;;;;;;20.08;15.40;;;;;;;;;;2061491;28;20176;-56
2021/08/28 02:43:08;;;;;;;16.58;14.23;;;;;;;;;;2069934;28;20223;-53
2021/08/28 02:44:09;;;;;;;17.73;15.60;;;;;;;;;;2061474;28;20173;-54
2021/08/28 02:45:13;;;;;;;18.40;15.93;;;;;;;;;;2061256;28;20201;-56
2021/08/28 02:46:14;;;;;;;22.52;16.58;;;;;;;;;;2060908;28;20205;-56
2021/08/28 02:47:15;;;;;;;17.90;15.30;;;;;;;;;;2061619;28;20720;-55
2021/08/28 02:48:18;;;;;;;18.45;16.55;;;;;;;;;;2059306;28;20227;-56
2021/08/28 02:49:20;;;;;;;20.67;15.98;;;;;;;;;;2059668;28;20190;-55
2021/08/28 02:50:23;;;;;;;20.00;15.88;;;;;;;;;;2064533;28;20169;-53
2021/08/28 02:51:28;;;;;;;18.25;14.98;;;;;;;;;;2069312;28;20265;-57
2021/08/28 02:52:29;;;;;;;17.83;15.43;;;;;;;;;;2061646;28;20228;-56
2021/08/28 02:53:30;;;;;;;17.17;15.27;;;;;;;;;;2067009;28;20259;-55
2021/08/28 02:54:31;;;;;;;23.02;16.33;;;;;;;;;;2068941;28;20176;-51
2021/08/28 02:55:32;;;;;;;19.48;16.00;;;;;;;;;;2068612;28;20189;-54
2021/08/28 02:56:32;;;;;;;17.95;14.55;;;;;;;;;;2064919;28;20638;-53
2021/08/28 02:57:34;;;;;;;16.48;14.52;;;;;;;;;;2066634;28;20177;-53
2021/08/28 02:58:35;;;;;;;15.80;13.68;;;;;;;;;;2067678;28;20181;-55
2021/08/28 02:59:37;;;;;;;15.80;13.65;;;;;;;;;;2061530;28;20206;-56
2021/08/28 03:00:39;;;;;;;13.00;11.70;;;;;;;;;;2065330;28;20180;-55
2021/08/28 03:01:43;;;;;;;13.98;12.68;;;;;;;;;;2057082;28;20562;-55
2021/08/28 03:02:44;;;;;;;11.80;10.70;;;;;;;;;;2060122;28;20202;-54
2021/08/28 03:03:47;;;;;;;11.35;10.13;;;;;;;;;;2061593;28;20265;-54
2021/08/28 03:04:51;;;;;;;10.40;9.45;;;;;;;;;;2066496;28;20869;-56
2021/08/28 03:05:52;;;;;;;10.82;9.38;;;;;;;;;;2069522;28;20188;-52
2021/08/28 03:06:53;;;;;;;10.57;9.50;;;;;;;;;;2069671;28;20587;-54
2021/08/28 03:07:54;;;;;;;9.98;8.98;;;;;;;;;;2058405;28;20242;-53
2021/08/28 03:08:57;;;;;;;10.32;9.30;;;;;;;;;;2067256;28;20193;-50
2021/08/28 03:09:58;;;;;;;10.05;9.07;;;;;;;;;;2069584;28;20181;-55
2021/08/28 03:10:59;;;;;;;11.70;9.35;;;;;;;;;;2059130;28;20198;-55
2021/08/28 03:12:00;;;;;;;10.30;8.90;;;;;;;;;;2064503;28;20173;-54
2021/08/28 03:13:02;;;;;;;9.63;8.57;;;;;;;;;;2061876;28;20201;-56
2021/08/28 03:14:02;;;;;;;8.25;7.43;;;;;;;;;;2060403;28;20166;-56
2021/08/28 03:15:04;;;;;;;9.25;8.45;;;;;;;;;;2067687;28;20524;-55
2021/08/28 03:16:07;;;;;;;8.93;8.10;;;;;;;;;;2061285;28;20181;-56
2021/08/28 03:17:09;;;;;;;9.57;7.90;;;;;;;;;;2064198;28;20189;-53
2021/08/28 03:18:15;;;;;;;9.15;8.25;;;;;;;;;;2059507;28;20503;-55
2021/08/28 03:19:19;;;;;;;9.18;8.07;;;;;;;;;;2059861;28;20204;-53
2021/08/28 03:20:20;;;;;;;8.52;7.68;;;;;;;;;;2066706;28;20178;-58
2021/08/28 03:21:21;;;;;;;10.48;8.75;;;;;;;;;;2065803;28;20189;-54
2021/08/28 03:22:22;;;;;;;10.02;8.85;;;;;;;;;;2057990;28;20171;-53
2021/08/28 03:23:29;;;;;;;9.65;8.43;;;;;;;;;;2068684;28;20172;-56
2021/08/28 03:24:32;;;;;;;9.52;8.40;;;;;;;;;;2068825;28;20193;-55
2021/08/28 03:25:44;;;;;;;9.57;8.68;;;;;;;;;;2061395;28;20165;-57
2021/08/28 03:26:44;;;;;;;9.25;8.50;;;;;;;;;;2066457;28;20192;-53
2021/08/28 03:27:45;;;;;;;9.98;8.63;;;;;;;;;;2068617;28;20196;-53
2021/08/28 03:28:46;;;;;;;9.98;9.07;;;;;;;;;;2059852;28;20236;-58
2021/08/28 03:29:47;;;;;;;10.80;9.35;;;;;;;;;;2068155;28;20178;-53
2021/08/28 03:30:49;;;;;;;9.50;8.60;;;;;;;;;;2067216;28;20272;-56
2021/08/28 03:31:50;;;;;;;9.10;8.30;;;;;;;;;;2058476;28;20170;-55
2021/08/28 03:32:51;;;;;;;9.80;8.88;;;;;;;;;;2068584;28;20185;-55
2021/08/28 03:33:53;;;;;;;9.90;8.95;;;;;;;;;;2058885;28;20185;-52
2021/08/28 03:34:54;;;;;;;9.95;8.98;;;;;;;;;;2068943;28;20181;-55
2021/08/28 03:35:55;;;;;;;9.90;8.93;;;;;;;;;;2067804;28;20173;-54
2021/08/28 03:36:56;;;;;;;9.88;9.05;;;;;;;;;;2068509;28;20177;-56
2021/08/28 03:37:56;;;;;;;11.68;10.25;;;;;;;;;;2060566;28;20237;-55
2021/08/28 03:39:01;;;;;;;11.82;10.73;;;;;;;;;;2060901;28;20181;-53
2021/08/28 03:40:02;;;;;;;11.77;10.43;;;;;;;;;;2059598;28;20250;-54
2021/08/28 03:41:03;;;;;;;13.25;11.10;;;;;;;;;;2057070;28;20190;-52
2021/08/28 03:42:03;;;;;;;12.75;11.43;;;;;;;;;;2062179;28;20205;-53
2021/08/28 03:43:03;;;;;;;12.75;11.45;;;;;;;;;;2060586;28;20217;-54
2021/08/28 03:44:04;;;;;;;13.23;11.93;;;;;;;;;;2069343;28;20177;-52
2021/08/28 03:45:06;;;;;;;12.73;11.52;;;;;;;;;;2068604;28;20284;-55
2021/08/28 03:46:09;;;;;;;12.27;11.05;;;;;;;;;;2068662;28;20169;-58
2021/08/28 03:47:13;;;;;;;13.13;11.85;;;;;;;;;;2068851;28;20180;-55
2021/08/28 03:48:13;;;;;;;13.32;11.02;;;;;;;;;;2069086;28;20165;-57
2021/08/28 03:49:14;;;;;;;12.93;11.63;;;;;;;;;;2071079;28;20758;-54
2021/08/28 03:50:16;;;;;;;12.52;10.48;;;;;;;;;;2058389;28;20190;-54
2021/08/28 03:51:21;;;;;;;12.38;11.18;;;;;;;;;;2060182;28;20193;-54
2021/08/28 03:52:22;;;;;;;13.18;11.80;;;;;;;;;;2062384;28;20685;-51
2021/08/28 03:53:25;;;;;;;12.80;11.15;;;;;;;;;;2060754;28;20194;-55
2021/08/28 03:54:34;;;;;;;12.60;11.40;;;;;;;;;;2067923;28;20181;-55
2021/08/28 03:55:34;;;;;;;10.93;9.85;;;;;;;;;;2071671;28;20169;-55
2021/08/28 03:56:35;;;;;;;11.57;10.48;;;;;;;;;;2065161;28;20318;-52
2021/08/28 03:57:35;;;;;;;12.32;11.13;;;;;;;;;;2067933;28;20189;-51
2021/08/28 03:58:36;;;;;;;11.50;10.40;;;;;;;;;;2065920;28;20174;-54
2021/08/28 03:59:36;;;;;;;13.10;10.93;;;;;;;;;;2066992;28;20741;-53
2021/08/28 04:00:37;;;;;;;12.90;11.70;;;;;;;;;;2058221;28;20214;-51
2021/08/28 04:01:38;;;;;;;13.27;11.98;;;;;;;;;;2062619;28;20202;-53
2021/08/28 04:02:42;;;;;;;12.18;10.98;;;;;;;;;;2062253;28;20194;-53
2021/08/28 04:03:49;;;;;;;12.57;11.27;;;;;;;;;;2061697;28;20552;-56
2021/08/28 04:04:50;;;;;;;12.07;10.93;;;;;;;;;;2059040;28;20197;-53
2021/08/28 04:05:50;;;;;;;12.63;11.45;;;;;;;;;;2067580;28;20241;-55
2021/08/28 04:06:51;;;;;;;12.90;11.65;;;;;;;;;;2060976;28;20175;-53
2021/08/28 04:07:52;;;;;;;13.18;11.63;;;;;;;;;;2067702;28;20651;-53
2021/08/28 04:08:52;;;;;;;12.85;11.55;;;;;;;;;;2078060;28;20521;-53
2021/08/28 04:09:52;;;;;;;14.27;11.80;;;;;;;;;;2058856;28;20594;-54
2021/08/28 04:10:53;;;;;;;14.48;12.32;;;;;;;;;;2060336;28;20185;-51
2021/08/28 04:11:57;;;;;;;15.85;13.05;;;;;;;;;;2069554;28;20170;-53
2021/08/28 04:12:58;;;;;;;15.02;12.27;;;;;;;;;;2061757;28;20202;-53
2021/08/28 04:13:58;;;;;;;12.73;11.43;;;;;;;;;;2062358;28;20186;-52
2021/08/28 04:14:59;;;;;;;13.23;11.95;;;;;;;;;;2068800;28;21448;-54
2021/08/28 04:16:02;;;;;;;13.57;12.15;;;;;;;;;;2059951;28;20197;-52
2021/08/28 04:17:08;;;;;;;13.48;11.57;;;;;;;;;;2062318;28;20158;-54
2021/08/28 04:18:09;;;;;;;16.33;12.27;;;;;;;;;;2067736;28;20252;-54
2021/08/28 04:19:10;;;;;;;14.10;12.73;;;;;;;;;;2061137;28;20280;-53
2021/08/28 04:20:20;;;;;;;13.95;11.80;;;;;;;;;;2059702;28;20662;-54
2021/08/28 04:21:20;;;;;;;14.70;13.20;;;;;;;;;;2066968;28;20170;-56
2021/08/28 04:22:21;;;;;;;13.45;12.15;;;;;;;;;;2060596;28;20225;-54
2021/08/28 04:23:39;;;;;;;13.50;12.10;;;;;;;;;;2070424;28;20169;-59
2021/08/28 04:24:49;;;;;;;14.98;12.50;;;;;;;;;;2070465;28;20583;-57
2021/08/28 04:26:09;;;;;;;14.55;12.23;;;;;;;;;;2076408;28;20215;-58
2021/08/28 04:27:09;;;;;;;13.50;12.05;;;;;;;;;;2077785;28;20574;-51
2021/08/28 04:28:09;;;;;;;18.75;13.40;;;;;;;;;;2066720;28;20646;-54
2021/08/28 04:29:10;;;;;;;15.95;13.93;;;;;;;;;;2058955;28;20175;-54
2021/08/28 04:30:11;;;;;;;14.48;12.93;;;;;;;;;;2066891;28;20169;-54
2021/08/28 04:31:13;;;;;;;14.13;12.23;;;;;;;;;;2073552;28;20181;-51
2021/08/28 04:32:15;;;;;;;16.48;13.50;;;;;;;;;;2069174;28;20169;-53
2021/08/28 04:33:16;;;;;;;14.43;12.95;;;;;;;;;;2057902;28;20266;-54
2021/08/28 04:34:16;;;;;;;16.20;13.73;;;;;;;;;;2060231;28;20182;-56
2021/08/28 04:35:16;;;;;;;14.05;12.65;;;;;;;;;;2059045;28;20173;-54
2021/08/28 04:36:17;;;;;;;14.50;11.25;;;;;;;;;;2067090;28;20170;-53
2021/08/28 04:37:18;;;;;;;13.55;11.90;;;;;;;;;;2067329;28;20275;-59
2021/08/28 04:38:19;;;;;;;13.52;12.23;;;;;;;;;;2065106;28;20174;-58
2021/08/28 04:39:23;;;;;;;14.48;12.50;;;;;;;;;;2059323;28;20292;-56
2021/08/28 04:40:29;;;;;;;12.55;11.25;;;;;;;;;;2058582;28;20178;-56
2021/08/28 04:41:29;;;;;;;13.65;12.15;;;;;;;;;;2051151;28;20178;-57
2021/08/28 04:42:30;;;;;;;14.73;13.20;;;;;;;;;;2053219;28;20174;-56
2021/08/28 04:43:30;;;;;;;15.38;12.15;;;;;;;;;;2059837;28;20661;-58
2021/08/28 04:44:47;;;;;;;13.30;12.00;;;;;;;;;;2067712;28;20165;-58
2021/08/28 04:45:47;;;;;;;15.63;12.68;;;;;;;;;;2066754;28;20166;-58
2021/08/28 04:47:14;;;;;;;13.68;12.32;;;;;;;;;;2072144;28;20184;-57
2021/08/28 04:48:14;;;;;;;15.57;12.32;;;;;;;;;;2070258;28;20197;-56
2021/08/28 04:49:15;;;;;;;12.68;11.38;;;;;;;;;;2060121;28;20206;-56
2021/08/28 04:50:31;;;;;;;13.98;11.55;;;;;;;;;;2066671;28;20177;-54
2021/08/28 04:51:32;;;;;;;15.38;12.25;;;;;;;;;;2073166;28;20302;-56
2021/08/28 04:52:32;;;;;;;13.95;12.52;;;;;;;;;;2059654;28;20208;-58
2021/08/28 04:53:32;;;;;;;14.93;12.57;;;;;;;;;;2073196;22;20257;-58
2021/08/28 04:54:33;;;;;;;17.00;13.48;;;;;;;;;;2070254;28;20236;-56
2021/08/28 04:55:33;;;;;;;14.07;12.68;;;;;;;;;;2058670;28;20251;-56
2021/08/28 04:56:34;;;;;;;14.90;11.98;;;;;;;;;;2060571;28;20173;-54
2021/08/28 04:57:36;;;;;;;14.45;13.05;;;;;;;;;;2058744;28;20174;-54
2021/08/28 04:58:36;;;;;;;16.00;13.15;;;;;;;;;;2059320;28;20361;-55
2021/08/28 04:59:55;;;;;;;14.32;12.90;;;;;;;;;;2075008;28;20177;-56
2021/08/28 05:01:14;;;;;;;13.98;12.48;;;;;;;;;;2073792;28;20165;-57
2021/08/28 05:02:33;;;;;;;14.43;12.98;;;;;;;;;;2074588;28;20188;-53
2021/08/28 05:03:40;;;;;;;14.95;13.18;;;;;;;;;;2061290;28;20197;-58
2021/08/28 05:04:40;;;;;;;14.27;12.48;;;;;;;;;;2060621;28;20629;-58
2021/08/28 05:05:40;;;;;;;13.57;12.18;;;;;;;;;;2060527;28;20181;-58
2021/08/28 05:06:41;;;;;;;15.05;13.20;;;;;;;;;;2057675;28;20224;-55
2021/08/28 05:07:44;;;;;;;14.38;13.02;;;;;;;;;;2058922;28;20277;-56
2021/08/28 05:08:45;;;;;;;14.20;12.70;;;;;;;;;;2058791;28;20170;-53
2021/08/28 05:09:45;;;;;;;14.35;12.95;;;;;;;;;;2052225;28;20207;-56
2021/08/28 05:10:45;;;;;;;15.50;13.88;;;;;;;;;;2058773;28;20170;-58
2021/08/28 05:11:47;;;;;;;14.48;12.98;;;;;;;;;;2067976;28;20290;-52
2021/08/28 05:12:48;;;;;;;16.52;13.40;;;;;;;;;;2068126;28;20169;-53
2021/08/28 05:13:49;;;;;;;14.85;13.25;;;;;;;;;;2067460;28;20288;-52
2021/08/28 05:14:49;;;;;;;15.27;13.68;;;;;;;;;;2066946;28;20196;-52
2021/08/28 05:15:50;;;;;;;15.88;14.23;;;;;;;;;;2059265;28;20269;-54
2021/08/28 05:16:50;;;;;;;16.42;14.20;;;;;;;;;;2058294;28;20269;-52
2021/08/28 05:18:06;;;;;;;15.68;14.07;;;;;;;;;;2063150;28;20169;-55
2021/08/28 05:19:07;;;;;;;17.20;15.63;;;;;;;;;;2067191;28;20220;-54
2021/08/28 05:20:08;;;;;;;15.88;14.35;;;;;;;;;;2058280;28;20567;-57
2021/08/28 05:21:27;;;;;;;16.98;14.75;;;;;;;;;;2067178;28;20177;-55
2021/08/28 05:22:47;;;;;;;16.98;15.32;;;;;;;;;;2066663;28;20780;-53
2021/08/28 05:24:06;;;;;;;16.50;14.73;;;;;;;;;;2064087;28;20182;-53
2021/08/28 05:25:16;;;;;;;16.67;14.98;;;;;;;;;;2059044;28;20167;-55
2021/08/28 05:26:16;;;;;;;17.98;16.15;;;;;;;;;;2051049;28;20171;-55
2021/08/28 05:27:17;;;;;;;16.40;14.88;;;;;;;;;;2050563;28;20301;-52
2021/08/28 05:28:17;;;;;;;17.13;15.40;;;;;;;;;;2051093;28;20224;-55
2021/08/28 05:29:18;;;;;;;17.10;15.45;;;;;;;;;;2060116;28;20170;-53
2021/08/28 05:30:18;;;;;;;16.08;14.52;;;;;;;;;;2057740;28;20185;-55
2021/08/28 05:31:18;;;;;;;17.67;15.70;;;;;;;;;;2058449;28;20180;-53
2021/08/28 05:32:18;;;;;;;16.08;14.52;;;;;;;;;;2060101;28;20200;-57
2021/08/28 05:33:19;;;;;;;15.52;14.23;;;;;;;;;;2060741;28;20739;-60
2021/08/28 05:34:19;;;;;;;16.13;14.73;;;;;;;;;;2068601;28;20189;-59
2021/08/28 05:35:41;;;;;;;16.13;14.50;;;;;;;;;;2061256;28;20273;-60
2021/08/28 05:37:03;;;;;;;15.52;14.13;;;;;;;;;;2063207;28;20170;-56
2021/08/28 05:38:32;;;;;;;14.77;13.38;;;;;;;;;;2068982;28;20182;-52
2021/08/28 05:39:33;;;;;;;15.45;13.85;;;;;;;;;;2068943;28;20189;-54
2021/08/28 05:40:33;;;;;;;14.65;13.25;;;;;;;;;;2060170;28;20210;-55
2021/08/28 05:41:35;;;;;;;14.80;13.50;;;;;;;;;;2052106;28;20171;-59
2021/08/28 05:42:36;;;;;;;15.05;13.55;;;;;;;;;;2060892;28;20169;-57
2021/08/28 05:43:36;;;;;;;15.38;13.73;;;;;;;;;;2068682;28;20701;-59
2021/08/28 05:44:36;;;;;;;13.85;12.65;;;;;;;;;;2070507;28;20177;-55
2021/08/28 05:45:37;;;;;;;14.88;13.38;;;;;;;;;;2068487;28;20206;-55
2021/08/28 05:46:37;;;;;;;14.82;13.43;;;;;;;;;;2067889;28;20165;-57
2021/08/28 05:47:51;;;;;;;14.43;12.77;;;;;;;;;;2058674;28;20298;-53
2021/08/28 05:48:53;;;;;;;15.93;13.73;;;;;;;;;;2060033;28;20727;-55
2021/08/28 05:50:14;;;;;;;13.05;11.73;;;;;;;;;;2056515;28;20186;-56
2021/08/28 05:51:14;;;;;;;14.00;12.65;;;;;;;;;;2068517;28;20169;-57
2021/08/28 05:52:14;;;;;;;14.95;12.43;;;;;;;;;;2067136;28;20170;-56
2021/08/28 05:53:15;;;;;;;15.07;13.43;;;;;;;;;;2064713;28;20165;-60
2021/08/28 05:54:15;;;;;;;15.10;12.55;;;;;;;;;;2056087;28;20297;-56
2021/08/28 05:55:15;;;;;;;14.27;12.98;;;;;;;;;;2066131;28;20177;-55
2021/08/28 05:56:16;;;;;;;13.45;12.13;;;;;;;;;;2058308;28;20174;-55
2021/08/28 05:57:16;;;;;;;13.43;12.20;;;;;;;;;;2058364;28;20194;-54
2021/08/28 05:58:16;;;;;;;13.27;12.18;;;;;;;;;;2057731;28;20247;-54
2021/08/28 05:59:17;;;;;;;13.32;11.98;;;;;;;;;;2057860;28;20201;-57
2021/08/28 06:00:17;;;;;;;13.18;11.98;;;;;;;;;;2055840;28;20304;-58
2021/08/28 06:01:30;;;;;;;14.48;12.82;;;;;;;;;;2058407;28;20770;-52
2021/08/28 06:02:30;;;;;;;12.35;11.15;;;;;;;;;;2050742;28;20348;-54
2021/08/28 06:03:31;;;;;;;13.70;12.07;;;;;;;;;;2058469;28;20200;-52
2021/08/28 06:04:38;;;;;;;13.95;12.45;;;;;;;;;;2067335;28;20456;-57
2021/08/28 06:05:47;;;;;;;13.75;12.20;;;;;;;;;;2065204;28;20158;-59
2021/08/28 06:06:51;;;;;;;12.68;11.50;;;;;;;;;;2065005;28;20228;-57
2021/08/28 06:08:26;;;;;;;13.05;11.95;;;;;;;;;;2064102;28;20194;-56
2021/08/28 06:09:32;;;;;;;12.55;11.43;;;;;;;;;;2065622;28;20224;-58
2021/08/28 06:10:51;;;;;;;12.88;11.68;;;;;;;;;;2063886;28;20702;-54
2021/08/28 06:12:11;;;;;;;13.23;11.93;;;;;;;;;;2067194;28;20242;-55
2021/08/28 06:13:34;;;;;;;13.13;11.82;;;;;;;;;;2067867;28;20212;-58
2021/08/28 06:14:45;;;;;;;13.50;12.20;;;;;;;;;;2066492;28;20177;-56